sensor_id;sensor_type;location;lat;lon;timestamp;pressure;altitude;pressure_sealevel;temperature;humidity
83551;BME280;74617;47.082;15.524;2024-02-26T00:01:03;95579.28;;;19.99;43.56
83551;BME280;74617;47.082;15.524;2024-02-26T00:03:28;95579.28;;;19.99;43.42
83551;BME280;74617;47.082;15.524;2024-02-26T00:05:53;95575.78;;;19.98;43.64
83551;BME280;74617;47.082;15.524;2024-02-26T00:08:19;95582.38;;;19.97;43.32
83551;BME280;74617;47.082;15.524;2024-02-26T00:10:44;95573.41;;;19.97;44.04
83551;BME280;74617;47.082;15.524;2024-02-26T00:13:10;95570.66;;;19.97;43.54
83551;BME280;74617;47.082;15.524;2024-02-26T00:15:35;95566.38;;;19.95;43.37
83551;BME280;74617;47.082;15.524;2024-02-26T00:18:01;95567.53;;;19.94;43.33
83551;BME280;74617;47.082;15.524;2024-02-26T00:20:26;95568.31;;;19.95;43.71
83551;BME280;74617;47.082;15.524;2024-02-26T00:22:52;95562.44;;;19.93;43.45
83551;BME280;74617;47.082;15.524;2024-02-26T00:25:17;95569.47;;;19.94;43.49
83551;BME280;74617;47.082;15.524;2024-02-26T00:27:43;95557.00;;;19.93;43.69
83551;BME280;74617;47.082;15.524;2024-02-26T00:30:09;95563.59;;;19.92;43.55
83551;BME280;74617;47.082;15.524;2024-02-26T00:32:35;95563.59;;;19.92;43.68
83551;BME280;74617;47.082;15.524;2024-02-26T00:35:00;95562.81;;;19.91;43.56
83551;BME280;74617;47.082;15.524;2024-02-26T00:37:26;95558.84;;;19.89;43.65
83551;BME280;74617;47.082;15.524;2024-02-26T00:39:51;95562.38;;;19.89;43.37
83551;BME280;74617;47.082;15.524;2024-02-26T00:42:18;95556.91;;;19.89;43.69
83551;BME280;74617;47.082;15.524;2024-02-26T00:44:43;95556.13;;;19.89;43.65
83551;BME280;74617;47.082;15.524;2024-02-26T00:47:09;95543.66;;;19.88;43.44
83551;BME280;74617;47.082;15.524;2024-02-26T00:49:34;95549.47;;;19.86;43.60
83551;BME280;74617;47.082;15.524;2024-02-26T00:51:59;95545.97;;;19.86;43.81
83551;BME280;74617;47.082;15.524;2024-02-26T00:54:25;95545.97;;;19.86;43.73
83551;BME280;74617;47.082;15.524;2024-02-26T00:56:50;95544.41;;;19.85;43.47
83551;BME280;74617;47.082;15.524;2024-02-26T00:59:15;95549.84;;;19.85;43.32
83551;BME280;74617;47.082;15.524;2024-02-26T01:01:41;95538.94;;;19.85;43.89
83551;BME280;74617;47.082;15.524;2024-02-26T01:04:06;95543.97;;;19.83;43.81
83551;BME280;74617;47.082;15.524;2024-02-26T01:06:31;95547.50;;;19.83;43.72
83551;BME280;74617;47.082;15.524;2024-02-26T01:08:57;95546.69;;;19.83;43.63
83551;BME280;74617;47.082;15.524;2024-02-26T01:11:22;95535.78;;;19.83;43.70
83551;BME280;74617;47.082;15.524;2024-02-26T01:13:47;95538.09;;;19.81;43.71
83551;BME280;74617;47.082;15.524;2024-02-26T01:16:13;95534.22;;;19.82;43.71
83551;BME280;74617;47.082;15.524;2024-02-26T01:18:39;95532.63;;;19.81;43.75
83551;BME280;74617;47.082;15.524;2024-02-26T01:21:04;95531.06;;;19.80;43.66
83551;BME280;74617;47.082;15.524;2024-02-26T01:23:34;95527.56;;;19.79;43.77
83551;BME280;74617;47.082;15.524;2024-02-26T01:25:59;95518.59;;;19.79;44.00
83551;BME280;74617;47.082;15.524;2024-02-26T01:28:24;95515.09;;;19.78;43.92
83551;BME280;74617;47.082;15.524;2024-02-26T01:30:50;95515.09;;;19.78;43.85
83551;BME280;74617;47.082;15.524;2024-02-26T01:33:15;95517.03;;;19.78;43.85
83551;BME280;74617;47.082;15.524;2024-02-26T01:35:40;95512.72;;;19.77;43.93
83551;BME280;74617;47.082;15.524;2024-02-26T01:38:06;95508.41;;;19.76;43.82
83551;BME280;74617;47.082;15.524;2024-02-26T01:40:31;95502.97;;;19.76;43.73
83551;BME280;74617;47.082;15.524;2024-02-26T01:42:57;95501.38;;;19.75;43.91
83551;BME280;74617;47.082;15.524;2024-02-26T01:45:22;95504.09;;;19.75;43.82
83551;BME280;74617;47.082;15.524;2024-02-26T01:47:50;95504.47;;;19.73;43.64
83551;BME280;74617;47.082;15.524;2024-02-26T01:50:17;95501.38;;;19.75;43.73
83551;BME280;74617;47.082;15.524;2024-02-26T01:52:44;95495.53;;;19.73;43.82
83551;BME280;74617;47.082;15.524;2024-02-26T01:55:09;95488.13;;;19.73;43.71
83551;BME280;74617;47.082;15.524;2024-02-26T01:57:35;95489.28;;;19.72;44.09
83551;BME280;74617;47.082;15.524;2024-02-26T02:00:00;95490.44;;;19.71;43.96
83551;BME280;74617;47.082;15.524;2024-02-26T02:02:26;95483.06;;;19.72;43.96
83551;BME280;74617;47.082;15.524;2024-02-26T02:04:52;95481.47;;;19.71;43.92
83551;BME280;74617;47.082;15.524;2024-02-26T02:07:18;95484.53;;;19.69;43.92
83551;BME280;74617;47.082;15.524;2024-02-26T02:09:44;95480.69;;;19.70;43.85
83551;BME280;74617;47.082;15.524;2024-02-26T02:12:10;95482.63;;;19.70;43.89
83551;BME280;74617;47.082;15.524;2024-02-26T02:14:36;95482.63;;;19.70;43.94
83551;BME280;74617;47.082;15.524;2024-02-26T02:17:01;95481.81;;;19.69;43.89
83551;BME280;74617;47.082;15.524;2024-02-26T02:19:26;95481.03;;;19.68;43.93
83551;BME280;74617;47.082;15.524;2024-02-26T02:21:52;95483.34;;;19.66;43.74
83551;BME280;74617;47.082;15.524;2024-02-26T02:24:17;95479.47;;;19.67;44.11
83551;BME280;74617;47.082;15.524;2024-02-26T02:26:43;95480.63;;;19.66;44.38
83551;BME280;74617;47.082;15.524;2024-02-26T02:29:08;95484.50;;;19.65;43.88
83551;BME280;74617;47.082;15.524;2024-02-26T02:31:34;95477.13;;;19.66;44.19
83551;BME280;74617;47.082;15.524;2024-02-26T02:34:00;95480.22;;;19.64;43.92
83551;BME280;74617;47.082;15.524;2024-02-26T02:36:25;95480.22;;;19.64;44.11
83551;BME280;74617;47.082;15.524;2024-02-26T02:38:51;95479.41;;;19.64;43.94
83551;BME280;74617;47.082;15.524;2024-02-26T02:41:17;95479.41;;;19.64;44.12
83551;BME280;74617;47.082;15.524;2024-02-26T02:43:42;95479.41;;;19.64;44.26
83551;BME280;74617;47.082;15.524;2024-02-26T02:46:08;95475.91;;;19.63;44.23
83551;BME280;74617;47.082;15.524;2024-02-26T02:48:33;95482.50;;;19.62;44.15
83551;BME280;74617;47.082;15.524;2024-02-26T02:50:58;95482.50;;;19.62;44.25
83551;BME280;74617;47.082;15.524;2024-02-26T02:53:24;95475.47;;;19.61;44.27
83551;BME280;74617;47.082;15.524;2024-02-26T02:55:49;95474.69;;;19.61;44.21
83551;BME280;74617;47.082;15.524;2024-02-26T02:58:15;95473.91;;;19.60;44.17
83551;BME280;74617;47.082;15.524;2024-02-26T03:00:40;95482.84;;;19.61;44.14
83551;BME280;74617;47.082;15.524;2024-02-26T03:03:05;95478.56;;;19.60;44.19
83551;BME280;74617;47.082;15.524;2024-02-26T03:05:31;95472.34;;;19.59;44.00
83551;BME280;74617;47.082;15.524;2024-02-26T03:07:57;95464.16;;;19.59;43.98
83551;BME280;74617;47.082;15.524;2024-02-26T03:10:22;95459.06;;;19.58;44.04
83551;BME280;74617;47.082;15.524;2024-02-26T03:12:49;95463.75;;;19.57;44.19
83551;BME280;74617;47.082;15.524;2024-02-26T03:15:15;95461.03;;;19.57;44.14
83551;BME280;74617;47.082;15.524;2024-02-26T03:17:40;95461.34;;;19.56;44.25
83551;BME280;74617;47.082;15.524;2024-02-26T03:20:06;95468.38;;;19.57;44.43
83551;BME280;74617;47.082;15.524;2024-02-26T03:22:33;95462.94;;;19.57;44.25
83551;BME280;74617;47.082;15.524;2024-02-26T03:24:59;95459.75;;;19.55;44.15
83551;BME280;74617;47.082;15.524;2024-02-26T03:27:24;95458.97;;;19.54;44.81
83551;BME280;74617;47.082;15.524;2024-02-26T03:29:49;95453.53;;;19.54;44.33
83551;BME280;74617;47.082;15.524;2024-02-26T03:32:15;95454.31;;;19.55;44.49
83551;BME280;74617;47.082;15.524;2024-02-26T03:34:40;95447.28;;;19.54;44.07
83551;BME280;74617;47.082;15.524;2024-02-26T03:37:06;95441.06;;;19.53;44.31
83551;BME280;74617;47.082;15.524;2024-02-26T03:39:32;95440.28;;;19.53;44.26
83551;BME280;74617;47.082;15.524;2024-02-26T03:41:58;95434.03;;;19.52;44.22
83551;BME280;74617;47.082;15.524;2024-02-26T03:44:23;95431.31;;;19.52;44.02
83551;BME280;74617;47.082;15.524;2024-02-26T03:46:48;95442.59;;;19.51;44.22
83551;BME280;74617;47.082;15.524;2024-02-26T03:49:14;95445.31;;;19.51;44.31
83551;BME280;74617;47.082;15.524;2024-02-26T03:51:39;95448.03;;;19.51;44.44
83551;BME280;74617;47.082;15.524;2024-02-26T03:54:04;95436.34;;;19.50;44.05
83551;BME280;74617;47.082;15.524;2024-02-26T03:56:30;95430.13;;;19.50;44.23
83551;BME280;74617;47.082;15.524;2024-02-26T03:58:55;95435.56;;;19.50;44.35
83551;BME280;74617;47.082;15.524;2024-02-26T04:01:20;95438.28;;;19.50;44.50
83551;BME280;74617;47.082;15.524;2024-02-26T04:03:46;95433.97;;;19.49;44.00
83551;BME280;74617;47.082;15.524;2024-02-26T04:06:11;95435.91;;;19.48;44.13
83551;BME280;74617;47.082;15.524;2024-02-26T04:08:40;95443.28;;;19.48;44.73
83551;BME280;74617;47.082;15.524;2024-02-26T04:11:05;95433.19;;;19.48;44.22
83551;BME280;74617;47.082;15.524;2024-02-26T04:13:33;95435.50;;;19.46;44.19
83551;BME280;74617;47.082;15.524;2024-02-26T04:15:59;95432.78;;;19.46;44.11
83551;BME280;74617;47.082;15.524;2024-02-26T04:18:26;95431.97;;;19.46;44.42
83551;BME280;74617;47.082;15.524;2024-02-26T04:20:52;95435.50;;;19.46;44.18
83551;BME280;74617;47.082;15.524;2024-02-26T04:23:17;95437.44;;;19.46;44.22
83551;BME280;74617;47.082;15.524;2024-02-26T04:25:43;95444.81;;;19.45;44.42
83551;BME280;74617;47.082;15.524;2024-02-26T04:28:08;95443.25;;;19.44;43.98
83551;BME280;74617;47.082;15.524;2024-02-26T04:30:33;95438.97;;;19.43;44.37
83551;BME280;74617;47.082;15.524;2024-02-26T04:32:59;95436.22;;;19.43;44.25
83551;BME280;74617;47.082;15.524;2024-02-26T04:35:24;95430.78;;;19.43;44.36
83551;BME280;74617;47.082;15.524;2024-02-26T04:37:50;95434.63;;;19.42;44.26
83551;BME280;74617;47.082;15.524;2024-02-26T04:40:15;95445.53;;;19.42;44.36
83551;BME280;74617;47.082;15.524;2024-02-26T04:42:40;95440.09;;;19.42;44.31
83551;BME280;74617;47.082;15.524;2024-02-26T04:45:06;95440.09;;;19.42;44.37
83551;BME280;74617;47.082;15.524;2024-02-26T04:47:33;95434.63;;;19.42;44.53
83551;BME280;74617;47.082;15.524;2024-02-26T04:49:59;95430.34;;;19.41;44.52
83551;BME280;74617;47.082;15.524;2024-02-26T04:52:25;95435.00;;;19.40;44.72
83551;BME280;74617;47.082;15.524;2024-02-26T04:54:50;95428.00;;;19.39;44.40
83551;BME280;74617;47.082;15.524;2024-02-26T04:57:16;95433.44;;;19.39;44.68
83551;BME280;74617;47.082;15.524;2024-02-26T04:59:43;95436.16;;;19.39;44.56
83551;BME280;74617;47.082;15.524;2024-02-26T05:02:10;95433.44;;;19.39;44.31
83551;BME280;74617;47.082;15.524;2024-02-26T05:04:35;95429.94;;;19.39;44.10
83551;BME280;74617;47.082;15.524;2024-02-26T05:07:00;95426.78;;;19.37;44.52
83551;BME280;74617;47.082;15.524;2024-02-26T05:09:26;95428.38;;;19.38;44.64
83551;BME280;74617;47.082;15.524;2024-02-26T05:11:51;95436.91;;;19.36;44.83
83551;BME280;74617;47.082;15.524;2024-02-26T05:14:17;95432.25;;;19.37;44.46
83551;BME280;74617;47.082;15.524;2024-02-26T05:16:42;95432.25;;;19.37;44.65
83551;BME280;74617;47.082;15.524;2024-02-26T05:19:07;95437.69;;;19.37;44.33
83551;BME280;74617;47.082;15.524;2024-02-26T05:21:33;95429.88;;;19.35;44.43
83551;BME280;74617;47.082;15.524;2024-02-26T05:23:59;95433.41;;;19.36;44.56
83551;BME280;74617;47.082;15.524;2024-02-26T05:26:24;95432.94;;;19.34;44.51
83551;BME280;74617;47.082;15.524;2024-02-26T05:28:50;95432.59;;;19.35;44.75
83551;BME280;74617;47.082;15.524;2024-02-26T05:31:16;95434.53;;;19.35;44.49
83551;BME280;74617;47.082;15.524;2024-02-26T05:33:41;95435.66;;;19.34;44.71
83551;BME280;74617;47.082;15.524;2024-02-26T05:36:07;95432.16;;;19.33;44.44
83551;BME280;74617;47.082;15.524;2024-02-26T05:38:32;95427.50;;;19.34;44.45
83551;BME280;74617;47.082;15.524;2024-02-26T05:40:59;95427.50;;;19.34;44.55
83551;BME280;74617;47.082;15.524;2024-02-26T05:43:27;95425.94;;;19.33;44.71
83551;BME280;74617;47.082;15.524;2024-02-26T05:45:53;95432.53;;;19.32;44.38
83551;BME280;74617;47.082;15.524;2024-02-26T05:48:19;95424.72;;;19.30;43.98
83551;BME280;74617;47.082;15.524;2024-02-26T05:50:45;95430.56;;;19.29;44.24
83551;BME280;74617;47.082;15.524;2024-02-26T05:53:11;95435.56;;;19.27;43.22
83551;BME280;74617;47.082;15.524;2024-02-26T05:55:36;95446.03;;;19.25;43.24
83551;BME280;74617;47.082;15.524;2024-02-26T05:58:02;95444.47;;;19.24;43.50
83551;BME280;74617;47.082;15.524;2024-02-26T06:00:28;95437.00;;;19.21;42.29
83551;BME280;74617;47.082;15.524;2024-02-26T06:02:53;95443.97;;;19.18;43.31
83551;BME280;74617;47.082;15.524;2024-02-26T06:05:18;95444.69;;;19.15;41.69
83551;BME280;74617;47.082;15.524;2024-02-26T06:07:44;95445.81;;;19.14;41.45
83551;BME280;74617;47.082;15.524;2024-02-26T06:10:09;95451.22;;;19.10;41.00
83551;BME280;74617;47.082;15.524;2024-02-26T06:12:35;95454.31;;;19.09;41.03
83551;BME280;74617;47.082;15.524;2024-02-26T06:15:01;95447.63;;;19.06;40.87
83551;BME280;74617;47.082;15.524;2024-02-26T06:17:27;95446.84;;;19.06;40.99
83551;BME280;74617;47.082;15.524;2024-02-26T06:19:53;95452.66;;;19.04;41.00
83551;BME280;74617;47.082;15.524;2024-02-26T06:22:18;95460.47;;;19.06;41.13
83551;BME280;74617;47.082;15.524;2024-02-26T06:24:43;95462.03;;;19.07;42.00
83551;BME280;74617;47.082;15.524;2024-02-26T06:27:09;95460.91;;;19.08;42.18
83551;BME280;74617;47.082;15.524;2024-02-26T06:29:34;95463.25;;;19.09;42.14
83551;BME280;74617;47.082;15.524;2024-02-26T06:32:00;95466.78;;;19.10;42.69
83551;BME280;74617;47.082;15.524;2024-02-26T06:34:25;95471.44;;;19.09;42.48
83551;BME280;74617;47.082;15.524;2024-02-26T06:36:50;95472.22;;;19.10;42.49
83551;BME280;74617;47.082;15.524;2024-02-26T06:39:16;95471.44;;;19.09;42.40
83551;BME280;74617;47.082;15.524;2024-02-26T06:41:41;95473.78;;;19.11;42.55
83551;BME280;74617;47.082;15.524;2024-02-26T06:44:07;95481.16;;;19.10;42.77
83551;BME280;74617;47.082;15.524;2024-02-26T06:46:32;95483.88;;;19.10;42.54
83551;BME280;74617;47.082;15.524;2024-02-26T06:48:57;95489.34;;;19.10;42.81
83551;BME280;74617;47.082;15.524;2024-02-26T06:51:23;95492.06;;;19.10;42.99
83551;BME280;74617;47.082;15.524;2024-02-26T06:53:49;95485.81;;;19.10;43.07
83551;BME280;74617;47.082;15.524;2024-02-26T06:56:14;95487.75;;;19.09;42.92
83551;BME280;74617;47.082;15.524;2024-02-26T06:58:39;95495.16;;;19.09;42.75
83551;BME280;74617;47.082;15.524;2024-02-26T07:01:05;95493.22;;;19.09;42.93
83551;BME280;74617;47.082;15.524;2024-02-26T07:03:30;95497.88;;;19.09;43.21
83551;BME280;74617;47.082;15.524;2024-02-26T07:05:56;95493.22;;;19.09;42.82
83551;BME280;74617;47.082;15.524;2024-02-26T07:08:22;95495.94;;;19.09;43.24
83551;BME280;74617;47.082;15.524;2024-02-26T07:10:47;95489.34;;;19.10;42.73
83551;BME280;74617;47.082;15.524;2024-02-26T07:13:13;95497.50;;;19.10;43.24
83551;BME280;74617;47.082;15.524;2024-02-26T07:15:38;95493.22;;;19.09;43.35
83551;BME280;74617;47.082;15.524;2024-02-26T07:18:04;95502.53;;;19.08;43.33
83551;BME280;74617;47.082;15.524;2024-02-26T07:20:30;95502.16;;;19.10;43.22
83551;BME280;74617;47.082;15.524;2024-02-26T07:22:56;95502.94;;;19.10;43.75
83551;BME280;74617;47.082;15.524;2024-02-26T07:25:22;95493.22;;;19.09;43.99
83551;BME280;74617;47.082;15.524;2024-02-26T07:27:48;95500.22;;;19.10;44.57
83551;BME280;74617;47.082;15.524;2024-02-26T07:30:13;95505.31;;;19.12;44.64
83551;BME280;74617;47.082;15.524;2024-02-26T07:32:39;95493.25;;;19.13;45.19
83551;BME280;74617;47.082;15.524;2024-02-26T07:35:05;95498.72;;;19.13;45.46
83551;BME280;74617;47.082;15.524;2024-02-26T07:37:30;95501.88;;;19.15;45.90
83551;BME280;74617;47.082;15.524;2024-02-26T07:39:56;95502.66;;;19.16;46.21
83551;BME280;74617;47.082;15.524;2024-02-26T07:42:21;95508.09;;;19.16;45.95
83551;BME280;74617;47.082;15.524;2024-02-26T07:44:46;95495.28;;;19.16;46.10
83551;BME280;74617;47.082;15.524;2024-02-26T07:47:12;95499.56;;;19.17;46.29
83551;BME280;74617;47.082;15.524;2024-02-26T07:49:39;95505.03;;;19.17;46.44
83551;BME280;74617;47.082;15.524;2024-02-26T07:52:05;95502.72;;;19.19;46.94
83551;BME280;74617;47.082;15.524;2024-02-26T07:54:30;95502.72;;;19.19;46.80
83551;BME280;74617;47.082;15.524;2024-02-26T07:56:55;95508.94;;;19.20;47.24
83551;BME280;74617;47.082;15.524;2024-02-26T07:59:21;95515.19;;;19.20;46.53
83551;BME280;74617;47.082;15.524;2024-02-26T08:01:55;95512.44;;;19.20;46.78
83551;BME280;74617;47.082;15.524;2024-02-26T08:04:21;95516.75;;;19.21;47.26
83551;BME280;74617;47.082;15.524;2024-02-26T08:06:46;95520.28;;;19.22;46.87
83551;BME280;74617;47.082;15.524;2024-02-26T08:09:11;95516.75;;;19.21;46.88
83551;BME280;74617;47.082;15.524;2024-02-26T08:11:38;95515.63;;;19.22;48.16
83551;BME280;74617;47.082;15.524;2024-02-26T08:14:03;95527.72;;;19.25;48.29
83551;BME280;74617;47.082;15.524;2024-02-26T08:16:28;95527.72;;;19.25;47.39
83551;BME280;74617;47.082;15.524;2024-02-26T08:18:55;95523.06;;;19.25;47.09
83551;BME280;74617;47.082;15.524;2024-02-26T08:21:20;95525.41;;;19.27;46.88
83551;BME280;74617;47.082;15.524;2024-02-26T08:23:45;95527.00;;;19.28;47.63
83551;BME280;74617;47.082;15.524;2024-02-26T08:26:11;95525.88;;;19.29;47.86
83551;BME280;74617;47.082;15.524;2024-02-26T08:28:37;95519.59;;;19.28;47.12
83551;BME280;74617;47.082;15.524;2024-02-26T08:31:03;95518.47;;;19.29;47.39
83551;BME280;74617;47.082;15.524;2024-02-26T08:33:28;95518.47;;;19.29;47.82
83551;BME280;74617;47.082;15.524;2024-02-26T08:35:54;95523.97;;;19.33;47.22
83551;BME280;74617;47.082;15.524;2024-02-26T08:38:19;95521.25;;;19.33;47.44
83551;BME280;74617;47.082;15.524;2024-02-26T08:40:45;95520.47;;;19.32;47.49
83551;BME280;74617;47.082;15.524;2024-02-26T08:43:10;95519.31;;;19.33;47.14
83551;BME280;74617;47.082;15.524;2024-02-26T08:45:35;95527.94;;;19.35;47.30
83551;BME280;74617;47.082;15.524;2024-02-26T08:48:01;95532.56;;;19.35;47.52
83551;BME280;74617;47.082;15.524;2024-02-26T08:50:27;95524.84;;;19.37;47.40
83551;BME280;74617;47.082;15.524;2024-02-26T08:52:52;95526.41;;;19.38;47.12
83551;BME280;74617;47.082;15.524;2024-02-26T08:55:18;95529.13;;;19.38;47.18
83551;BME280;74617;47.082;15.524;2024-02-26T08:57:44;95534.22;;;19.39;47.53
83551;BME280;74617;47.082;15.524;2024-02-26T09:00:09;95545.09;;;19.39;46.87
83551;BME280;74617;47.082;15.524;2024-02-26T09:02:36;95535.78;;;19.40;47.03
83551;BME280;74617;47.082;15.524;2024-02-26T09:05:04;95540.09;;;19.41;46.90
83551;BME280;74617;47.082;15.524;2024-02-26T09:07:30;95536.25;;;19.43;46.84
83551;BME280;74617;47.082;15.524;2024-02-26T09:09:56;95539.75;;;19.43;46.75
83551;BME280;74617;47.082;15.524;2024-02-26T09:12:21;95537.81;;;19.44;46.72
83551;BME280;74617;47.082;15.524;2024-02-26T09:14:47;95530.41;;;19.44;46.74
83551;BME280;74617;47.082;15.524;2024-02-26T09:17:12;95524.97;;;19.44;46.69
83551;BME280;74617;47.082;15.524;2024-02-26T09:19:38;95533.16;;;19.44;46.48
83551;BME280;74617;47.082;15.524;2024-02-26T09:22:03;95524.19;;;19.44;46.68
83551;BME280;74617;47.082;15.524;2024-02-26T09:24:29;95524.97;;;19.44;46.42
83551;BME280;74617;47.082;15.524;2024-02-26T09:26:54;95531.22;;;19.45;46.58
83551;BME280;74617;47.082;15.524;2024-02-26T09:29:20;95526.53;;;19.45;46.57
83551;BME280;74617;47.082;15.524;2024-02-26T09:31:45;95533.56;;;19.46;46.50
83551;BME280;74617;47.082;15.524;2024-02-26T09:34:13;95537.84;;;19.47;46.56
83551;BME280;74617;47.082;15.524;2024-02-26T09:36:38;95528.53;;;19.48;46.36
83551;BME280;74617;47.082;15.524;2024-02-26T09:39:03;95533.97;;;19.48;46.36
83551;BME280;74617;47.082;15.524;2024-02-26T09:41:30;95541.81;;;19.50;46.22
83551;BME280;74617;47.082;15.524;2024-02-26T09:43:58;95539.88;;;19.50;46.36
83551;BME280;74617;47.082;15.524;2024-02-26T09:46:27;95543.38;;;19.51;46.34
83551;BME280;74617;47.082;15.524;2024-02-26T09:48:53;95551.19;;;19.52;46.18
83551;BME280;74617;47.082;15.524;2024-02-26T09:51:18;95548.47;;;19.52;46.31
83551;BME280;74617;47.082;15.524;2024-02-26T09:53:46;95551.59;;;19.54;46.23
83551;BME280;74617;47.082;15.524;2024-02-26T09:56:13;95552.38;;;19.55;46.36
83551;BME280;74617;47.082;15.524;2024-02-26T09:58:39;95555.56;;;19.57;46.25
83551;BME280;74617;47.082;15.524;2024-02-26T10:01:10;95553.28;;;19.59;46.37
83551;BME280;74617;47.082;15.524;2024-02-26T10:03:39;95550.56;;;19.59;46.25
83551;BME280;74617;47.082;15.524;2024-02-26T10:06:07;95550.19;;;19.60;46.32
83551;BME280;74617;47.082;15.524;2024-02-26T10:08:34;95547.09;;;19.62;46.00
83551;BME280;74617;47.082;15.524;2024-02-26T10:11:00;95556.88;;;19.63;46.02
83551;BME280;74617;47.082;15.524;2024-02-26T10:13:26;95549.47;;;19.63;46.09
83551;BME280;74617;47.082;15.524;2024-02-26T10:15:51;95553.78;;;19.64;46.12
83551;BME280;74617;47.082;15.524;2024-02-26T10:18:17;95558.06;;;19.65;45.98
83551;BME280;74617;47.082;15.524;2024-02-26T10:20:42;95561.59;;;19.66;46.04
83551;BME280;74617;47.082;15.524;2024-02-26T10:23:25;95552.25;;;19.67;46.15
83551;BME280;74617;47.082;15.524;2024-02-26T10:25:54;95551.88;;;19.68;46.12
83551;BME280;74617;47.082;15.524;2024-02-26T10:28:20;95556.22;;;19.70;46.18
83551;BME280;74617;47.082;15.524;2024-02-26T10:30:45;95553.50;;;19.70;45.74
83551;BME280;74617;47.082;15.524;2024-02-26T10:33:12;95564.03;;;19.71;45.75
83551;BME280;74617;47.082;15.524;2024-02-26T10:35:38;95555.47;;;19.73;46.00
83551;BME280;74617;47.082;15.524;2024-02-26T10:38:06;95561.72;;;19.73;46.13
83551;BME280;74617;47.082;15.524;2024-02-26T10:40:32;95563.28;;;19.74;45.92
83551;BME280;74617;47.082;15.524;2024-02-26T10:42:58;95564.50;;;19.77;45.62
83551;BME280;74617;47.082;15.524;2024-02-26T10:45:23;95556.34;;;19.77;45.62
83551;BME280;74617;47.082;15.524;2024-02-26T10:47:48;95555.19;;;19.78;45.74
83551;BME280;74617;47.082;15.524;2024-02-26T10:50:14;95561.41;;;19.78;45.78
83551;BME280;74617;47.082;15.524;2024-02-26T10:52:42;95567.66;;;19.79;45.58
83551;BME280;74617;47.082;15.524;2024-02-26T10:55:08;95562.22;;;19.79;45.78
83551;BME280;74617;47.082;15.524;2024-02-26T10:57:40;95565.34;;;19.81;45.56
83551;BME280;74617;47.082;15.524;2024-02-26T11:00:06;95566.91;;;19.82;45.40
83551;BME280;74617;47.082;15.524;2024-02-26T11:02:33;95567.38;;;19.84;45.61
83551;BME280;74617;47.082;15.524;2024-02-26T11:05:02;95567.38;;;19.84;45.55
83551;BME280;74617;47.082;15.524;2024-02-26T11:07:29;95566.22;;;19.85;45.36
83551;BME280;74617;47.082;15.524;2024-02-26T11:09:56;95561.53;;;19.85;45.44
83551;BME280;74617;47.082;15.524;2024-02-26T11:12:22;95556.88;;;19.86;45.40
83551;BME280;74617;47.082;15.524;2024-02-26T11:14:49;95545.22;;;19.89;45.36
83551;BME280;74617;47.082;15.524;2024-02-26T11:17:19;95553.41;;;19.89;45.39
83551;BME280;74617;47.082;15.524;2024-02-26T11:19:44;95539.44;;;19.90;45.24
83551;BME280;74617;47.082;15.524;2024-02-26T11:22:11;95539.06;;;19.92;45.15
83551;BME280;74617;47.082;15.524;2024-02-26T11:24:36;95543.72;;;19.91;45.39
83551;BME280;74617;47.082;15.524;2024-02-26T11:27:06;95540.22;;;19.91;45.33
83551;BME280;74617;47.082;15.524;2024-02-26T11:29:38;95539.47;;;19.94;45.34
83551;BME280;74617;47.082;15.524;2024-02-26T11:32:05;95543.00;;;19.94;45.15
83551;BME280;74617;47.082;15.524;2024-02-26T11:34:31;95530.16;;;19.95;45.38
83551;BME280;74617;47.082;15.524;2024-02-26T11:36:56;95529.78;;;19.97;45.36
83551;BME280;74617;47.082;15.524;2024-02-26T11:39:23;95525.13;;;19.97;45.12
83551;BME280;74617;47.082;15.524;2024-02-26T11:41:50;95518.53;;;19.98;45.12
83551;BME280;74617;47.082;15.524;2024-02-26T11:44:28;95523.59;;;20.00;44.94
83551;BME280;74617;47.082;15.524;2024-02-26T11:46:56;95522.44;;;20.01;45.03
83551;BME280;74617;47.082;15.524;2024-02-26T11:51:54;95518.19;;;20.03;45.21
83551;BME280;74617;47.082;15.524;2024-02-26T11:57:27;95530.34;;;20.06;45.01
83551;BME280;74617;47.082;15.524;2024-02-26T12:00:10;95517.47;;;20.06;45.15
83551;BME280;74617;47.082;15.524;2024-02-26T12:02:46;95526.06;;;20.08;45.18
83551;BME280;74617;47.082;15.524;2024-02-26T12:05:17;95515.16;;;20.08;45.04
83551;BME280;74617;47.082;15.524;2024-02-26T12:07:55;95521.41;;;20.09;44.91
83551;BME280;74617;47.082;15.524;2024-02-26T12:13:14;95514.38;;;20.08;45.22
83551;BME280;74617;47.082;15.524;2024-02-26T12:15:54;95503.88;;;20.10;45.22
83551;BME280;74617;47.082;15.524;2024-02-26T12:18:20;95512.84;;;20.10;45.00
83551;BME280;74617;47.082;15.524;2024-02-26T12:20:50;95517.53;;;20.10;44.98
83551;BME280;74617;47.082;15.524;2024-02-26T12:23:22;95507.41;;;20.10;44.93
83551;BME280;74617;47.082;15.524;2024-02-26T12:25:48;95503.53;;;20.11;44.67
83551;BME280;74617;47.082;15.524;2024-02-26T12:28:14;95512.13;;;20.13;44.95
83551;BME280;74617;47.082;15.524;2024-02-26T12:30:40;95505.53;;;20.14;44.94
83551;BME280;74617;47.082;15.524;2024-02-26T12:33:05;95502.78;;;20.14;45.01
83551;BME280;74617;47.082;15.524;2024-02-26T12:35:34;95507.09;;;20.15;45.01
83551;BME280;74617;47.082;15.524;2024-02-26T12:38:00;95500.47;;;20.16;45.01
83551;BME280;74617;47.082;15.524;2024-02-26T12:40:25;95504.38;;;20.15;44.85
83551;BME280;74617;47.082;15.524;2024-02-26T12:42:53;95506.72;;;20.17;44.87
83551;BME280;74617;47.082;15.524;2024-02-26T12:45:20;95495.81;;;20.17;44.62
83551;BME280;74617;47.082;15.524;2024-02-26T12:47:46;95504.78;;;20.17;44.85
83551;BME280;74617;47.082;15.524;2024-02-26T12:50:12;95500.13;;;20.18;44.59
83551;BME280;74617;47.082;15.524;2024-02-26T12:52:42;95502.91;;;20.21;44.75